Concord, Texas
Current Conditions -  °F | °C
As of 6:15 PM on Monday 20 Oct 2014 (Local Time) from KLXY Reporting Station
Clear Clear  
Wind Chill: 75°   Ceiling: Unl
Heat Index: 75°   Visibility: 10mi
Dew Point: 59°   Wind: 3mph
Humidity: 58%   Direction: 50°NE
Pressure: 30"   Gusts: NA
Location:  31.26°N, 96.14°W
Report Text: KLXY 202315Z AUTO 05003KT 10SM CLR 24/15 A3000 RMK AO2 T02400152
Loading
Personal Weather Stations






























Interactive Weather Map
Tropical Storm Tracking
New forecast layout! Learn more

10-Day Weather Forecast

Advertisements
Track Severe Weather on mobile